Time;durP1;ratioP1;P1;durP2;ratioP2;P2;SDS_P1;SDS_P2;PMS_P1;PMS_P2;Temp;Humidity;BMP_temperature;BMP_pressure;BME280_temperature;BME280_humidity;BME280_pressure;Samples;Min_cycle;Max_cycle;Signal;HPM_P1;HPM_P2
2022/03/26 00:02:32;;;;;;;8.30;3.17;;;7.90;72.80;;;;;;5123664;27;20265;-52
2022/03/26 00:05:18;;;;;;;6.03;3.60;;;7.90;73.00;;;;;;5123373;27;20183;-56
2022/03/26 00:08:02;;;;;;;6.13;4.10;;;7.90;72.80;;;;;;5114165;27;20200;-47
2022/03/26 00:10:47;;;;;;;8.73;3.63;;;7.90;73.00;;;;;;5109861;27;20187;-59
2022/03/26 00:13:32;;;;;;;7.97;2.90;;;7.80;73.10;;;;;;5105445;27;20195;-57
2022/03/26 00:16:16;;;;;;;7.27;3.83;;;7.70;73.30;;;;;;5109986;27;20218;-52
2022/03/26 00:19:01;;;;;;;9.03;4.10;;;7.70;73.30;;;;;;5116340;27;20207;-59
2022/03/26 00:21:47;;;;;;;8.90;3.67;;;7.70;73.30;;;;;;5106709;27;20242;-49
2022/03/26 00:24:32;;;;;;;7.50;3.47;;;7.70;73.10;;;;;;5109563;27;20248;-50
2022/03/26 00:27:17;;;;;;;7.30;3.37;;;7.70;72.90;;;;;;5114205;27;20199;-55
2022/03/26 00:30:03;;;;;;;10.83;4.27;;;7.80;73.10;;;;;;5110358;27;20263;-58
2022/03/26 00:32:48;;;;;;;5.47;3.57;;;7.70;73.30;;;;;;5123248;27;20184;-56
2022/03/26 00:35:35;;;;;;;7.80;3.93;;;7.60;73.80;;;;;;5110862;27;20333;-53
2022/03/26 00:38:19;;;;;;;6.87;4.20;;;7.60;75.00;;;;;;5109741;27;20235;-58
2022/03/26 00:41:04;;;;;;;7.67;3.10;;;7.60;75.60;;;;;;5108535;27;20285;-58
2022/03/26 00:43:50;;;;;;;6.50;3.53;;;7.50;75.50;;;;;;5113143;27;20272;-60
2022/03/26 00:46:35;;;;;;;8.97;3.53;;;7.50;75.10;;;;;;5130501;27;20207;-57
2022/03/26 00:49:20;;;;;;;7.77;3.63;;;7.60;75.10;;;;;;5111886;27;20220;-54
2022/03/26 00:52:05;;;;;;;7.27;3.53;;;7.50;76.10;;;;;;5120098;27;20236;-56
2022/03/26 00:54:49;;;;;;;6.63;3.70;;;7.40;77.00;;;;;;5122624;27;20211;-50
2022/03/26 00:57:35;;;;;;;7.67;4.17;;;7.30;78.10;;;;;;5149290;27;20215;-56
2022/03/26 01:00:19;;;;;;;6.27;3.40;;;7.20;79.00;;;;;;5149348;27;20187;-45
2022/03/26 01:03:08;;;;;;;5.27;3.07;;;7.20;78.80;;;;;;5152795;27;20249;-53
2022/03/26 01:05:52;;;;;;;5.83;3.33;;;7.20;79.00;;;;;;5130647;27;20187;-50
2022/03/26 01:08:37;;;;;;;7.73;3.47;;;7.20;79.10;;;;;;5129372;27;20187;-55
2022/03/26 01:11:22;;;;;;;7.33;3.43;;;7.10;79.50;;;;;;5130172;27;20200;-56
2022/03/26 01:14:07;;;;;;;5.97;3.40;;;7.10;79.00;;;;;;5132666;27;20302;-57
2022/03/26 01:16:51;;;;;;;8.93;3.90;;;7.00;78.20;;;;;;5135552;27;20281;-58
2022/03/26 01:19:36;;;;;;;5.73;3.70;;;7.00;78.30;;;;;;5130469;27;20184;-51
2022/03/26 01:22:21;;;;;;;4.20;3.53;;;7.00;78.10;;;;;;5129702;27;20209;-53
2022/03/26 01:25:06;;;;;;;4.57;3.50;;;6.90;78.20;;;;;;5135972;27;20254;-59
2022/03/26 01:27:51;;;;;;;10.53;3.23;;;6.90;78.40;;;;;;5132897;27;20198;-59
2022/03/26 01:30:35;;;;;;;3.23;3.00;;;6.80;78.50;;;;;;5127735;27;20191;-59
2022/03/26 01:33:20;;;;;;;6.60;3.30;;;6.70;78.50;;;;;;5131595;27;20287;-53
2022/03/26 01:36:07;;;;;;;9.60;3.60;;;6.70;79.10;;;;;;5131050;27;20199;-51
2022/03/26 01:38:52;;;;;;;3.60;2.70;;;6.70;79.40;;;;;;5132644;27;20244;-60
2022/03/26 01:41:37;;;;;;;9.90;3.57;;;6.60;79.20;;;;;;5130264;27;20233;-53
2022/03/26 01:44:21;;;;;;;6.77;3.00;;;6.60;79.30;;;;;;5129695;27;20198;-55
2022/03/26 01:47:06;;;;;;;7.73;3.43;;;6.50;79.20;;;;;;5133117;27;20195;-52
2022/03/26 01:49:51;;;;;;;5.67;3.07;;;6.50;79.60;;;;;;5131484;27;20223;-58
2022/03/26 01:52:35;;;;;;;10.23;3.83;;;6.50;80.00;;;;;;5127637;27;20176;-53
2022/03/26 01:55:21;;;;;;;17.63;7.77;;;6.50;80.20;;;;;;5131194;27;20205;-58
2022/03/26 01:58:05;;;;;;;8.67;2.93;;;6.50;80.60;;;;;;5131525;27;20591;-58
2022/03/26 02:00:51;;;;;;;3.13;2.67;;;6.40;82.20;;;;;;5131811;27;20210;-54
2022/03/26 02:03:36;;;;;;;5.07;2.63;;;6.40;82.60;;;;;;5132141;27;20240;-60
2022/03/26 02:06:22;;;;;;;6.07;3.30;;;6.50;83.70;;;;;;5128450;27;20203;-60
2022/03/26 02:09:10;;;;;;;10.37;3.43;;;6.60;83.10;;;;;;5131429;27;20196;-61
2022/03/26 02:11:55;;;;;;;5.53;3.90;;;6.70;81.50;;;;;;5133718;27;20210;-58
2022/03/26 02:14:40;;;;;;;6.83;3.60;;;6.60;82.20;;;;;;5130509;27;20212;-55
2022/03/26 02:17:24;;;;;;;14.17;6.87;;;6.70;81.50;;;;;;5129289;27;20208;-53
2022/03/26 02:20:14;;;;;;;8.30;3.83;;;6.60;80.80;;;;;;5132658;27;20196;-59
2022/03/26 02:22:59;;;;;;;6.13;3.50;;;6.70;81.90;;;;;;5130172;27;20287;-53
2022/03/26 02:25:43;;;;;;;3.30;3.00;;;6.70;82.20;;;;;;5129986;27;20211;-57
2022/03/26 02:28:28;;;;;;;7.67;3.47;;;6.70;82.20;;;;;;5132390;27;20220;-55
2022/03/26 02:31:13;;;;;;;5.53;3.10;;;6.70;81.70;;;;;;5131883;27;20264;-57
2022/03/26 02:33:57;;;;;;;4.47;2.67;;;6.70;81.80;;;;;;5130295;27;20276;-51
2022/03/26 02:36:43;;;;;;;7.00;3.13;;;6.60;82.40;;;;;;5131869;27;20183;-51
2022/03/26 02:39:27;;;;;;;5.07;3.00;;;6.60;82.00;;;;;;5130594;27;20196;-50
2022/03/26 02:42:13;;;;;;;2.70;2.47;;;6.70;82.30;;;;;;5133060;27;20183;-55
2022/03/26 02:44:57;;;;;;;4.30;2.63;;;6.60;82.70;;;;;;5126751;27;20223;-53
2022/03/26 02:47:43;;;;;;;6.73;3.20;;;6.60;82.80;;;;;;5132973;27;20245;-51
2022/03/26 02:50:27;;;;;;;16.47;8.40;;;6.80;82.70;;;;;;5115278;27;20259;-54
2022/03/26 02:53:13;;;;;;;8.57;5.13;;;6.60;81.90;;;;;;5132902;27;20244;-55
2022/03/26 02:55:59;;;;;;;3.57;2.47;;;6.60;82.10;;;;;;5130865;27;20227;-54
2022/03/26 02:58:45;;;;;;;4.30;3.23;;;6.30;82.60;;;;;;5133123;27;20217;-58
2022/03/26 03:01:29;;;;;;;7.40;3.70;;;6.20;83.30;;;;;;5132904;27;20215;-54
2022/03/26 03:04:13;;;;;;;6.63;3.83;;;6.20;84.30;;;;;;5135817;27;20205;-53
2022/03/26 03:06:58;;;;;;;8.40;3.83;;;6.20;85.30;;;;;;5130932;27;20184;-54
2022/03/26 03:09:42;;;;;;;9.30;4.33;;;6.10;85.60;;;;;;5132621;27;20196;-51
2022/03/26 03:12:28;;;;;;;22.20;9.97;;;6.00;86.60;;;;;;5136090;27;20249;-53
2022/03/26 03:15:17;;;;;;;9.13;5.20;;;5.90;86.60;;;;;;5135653;27;20244;-48
2022/03/26 03:18:02;;;;;;;10.80;4.33;;;5.80;86.20;;;;;;5133754;27;20292;-47
2022/03/26 03:20:46;;;;;;;3.90;3.20;;;5.80;86.00;;;;;;5135359;27;20179;-54
2022/03/26 03:23:30;;;;;;;5.67;2.83;;;5.80;85.80;;;;;;5135397;27;20183;-54
2022/03/26 03:26:15;;;;;;;7.13;4.30;;;5.60;86.20;;;;;;5134694;27;20269;-51
2022/03/26 03:29:00;;;;;;;11.27;4.40;;;5.70;86.20;;;;;;5134686;27;20235;-51
2022/03/26 03:31:48;;;;;;;11.47;4.07;;;5.60;86.60;;;;;;5130704;27;20190;-56
2022/03/26 03:34:32;;;;;;;5.70;2.73;;;5.70;86.30;;;;;;5136991;27;20187;-51
2022/03/26 03:37:17;;;;;;;14.10;4.33;;;5.70;86.50;;;;;;5132088;27;20272;-55
2022/03/26 03:40:03;;;;;;;7.00;4.17;;;5.50;86.70;;;;;;5132014;27;20264;-47
2022/03/26 03:43:10;;;;;;;5.90;4.33;;;5.50;87.10;;;;;;5134834;27;20264;-60
2022/03/26 03:45:55;;;;;;;10.17;4.20;;;5.40;87.50;;;;;;5130241;27;20233;-59
2022/03/26 03:48:41;;;;;;;9.30;3.83;;;5.40;87.70;;;;;;5133585;27;20294;-61
2022/03/26 03:51:26;;;;;;;10.17;4.17;;;5.30;87.90;;;;;;5134191;27;20183;-52
2022/03/26 03:54:12;;;;;;;7.57;3.07;;;5.20;88.60;;;;;;5131857;27;20210;-56
2022/03/26 03:56:56;;;;;;;19.03;4.00;;;5.20;89.10;;;;;;5126582;27;20269;-54
2022/03/26 03:59:41;;;;;;;7.57;3.33;;;5.20;89.40;;;;;;5134649;27;20261;-51
2022/03/26 04:02:25;;;;;;;7.43;4.63;;;5.20;89.60;;;;;;5130074;27;20187;-54
2022/03/26 04:05:10;;;;;;;3.83;2.77;;;5.10;90.30;;;;;;5130971;27;20182;-52
2022/03/26 04:07:54;;;;;;;4.83;4.13;;;5.10;90.00;;;;;;5129572;27;20256;-53
2022/03/26 04:10:38;;;;;;;7.33;4.17;;;5.10;90.20;;;;;;5134537;27;20198;-51
2022/03/26 04:13:22;;;;;;;10.40;3.83;;;5.00;90.40;;;;;;5136684;27;20252;-56
2022/03/26 04:16:07;;;;;;;13.27;4.63;;;5.00;90.60;;;;;;5132910;27;20179;-52
2022/03/26 04:18:52;;;;;;;11.97;4.10;;;5.00;90.70;;;;;;5130331;27;20246;-49
2022/03/26 04:21:36;;;;;;;6.60;3.77;;;5.00;91.00;;;;;;5135671;27;20247;-49
2022/03/26 04:24:20;;;;;;;14.07;4.47;;;5.00;91.40;;;;;;5135163;27;20210;-54
2022/03/26 04:27:04;;;;;;;8.13;4.13;;;4.90;91.40;;;;;;5130053;27;20255;-56
2022/03/26 04:29:49;;;;;;;7.13;4.10;;;4.90;91.50;;;;;;5125891;27;20245;-59
2022/03/26 04:32:34;;;;;;;13.00;3.80;;;4.70;91.70;;;;;;5135560;27;20180;-50
2022/03/26 04:35:18;;;;;;;10.73;4.00;;;4.70;92.00;;;;;;5133286;27;20192;-59
2022/03/26 04:38:03;;;;;;;6.87;3.73;;;4.60;92.30;;;;;;5129452;27;20219;-56
2022/03/26 04:40:50;;;;;;;11.47;4.67;;;4.70;92.30;;;;;;5131874;27;20265;-58
2022/03/26 04:43:34;;;;;;;7.10;4.33;;;4.70;92.30;;;;;;5134677;27;20200;-55
2022/03/26 04:46:18;;;;;;;7.03;3.37;;;4.70;92.60;;;;;;5134441;27;20205;-58
2022/03/26 04:49:02;;;;;;;6.40;3.93;;;4.50;92.90;;;;;;5126321;27;20199;-49
2022/03/26 04:51:47;;;;;;;9.30;4.50;;;4.60;93.10;;;;;;5132433;27;20222;-52
2022/03/26 04:54:31;;;;;;;13.37;5.13;;;4.50;93.40;;;;;;5132090;27;20207;-54
2022/03/26 04:57:17;;;;;;;5.37;3.20;;;4.50;93.50;;;;;;5133167;27;20230;-56
2022/03/26 05:00:02;;;;;;;9.00;4.63;;;4.50;93.60;;;;;;5129734;27;20217;-53
2022/03/26 05:02:46;;;;;;;6.00;3.83;;;4.50;93.70;;;;;;5123381;27;20187;-55
2022/03/26 05:05:30;;;;;;;10.43;4.13;;;4.40;93.90;;;;;;5123067;27;20192;-50
2022/03/26 05:08:15;;;;;;;7.77;3.73;;;4.40;94.00;;;;;;5122595;27;20179;-60
2022/03/26 05:11:00;;;;;;;14.00;4.80;;;4.30;94.20;;;;;;5120779;27;20187;-49
2022/03/26 05:13:44;;;;;;;10.43;5.10;;;4.40;94.20;;;;;;5124228;27;20180;-57
2022/03/26 05:16:29;;;;;;;11.63;4.50;;;4.30;94.40;;;;;;5124263;27;20191;-58
2022/03/26 05:19:13;;;;;;;6.53;3.63;;;4.30;94.50;;;;;;5123557;27;20200;-60
2022/03/26 05:21:58;;;;;;;7.97;4.10;;;4.20;94.80;;;;;;5124862;27;20194;-59
2022/03/26 05:24:43;;;;;;;8.40;4.13;;;4.30;94.80;;;;;;5123646;27;20191;-58
2022/03/26 05:27:27;;;;;;;9.73;5.07;;;4.20;95.00;;;;;;5124543;27;20218;-57
2022/03/26 05:30:12;;;;;;;8.20;3.80;;;4.30;95.10;;;;;;5124295;27;20199;-54
2022/03/26 05:33:00;;;;;;;7.73;4.87;;;4.30;95.00;;;;;;5122870;27;20195;-53
2022/03/26 05:35:45;;;;;;;8.27;3.63;;;4.30;95.00;;;;;;5124470;27;20213;-51
2022/03/26 05:38:31;;;;;;;10.07;4.13;;;4.30;95.20;;;;;;5124131;27;20231;-50
2022/03/26 05:41:15;;;;;;;5.40;3.60;;;4.30;95.30;;;;;;5123024;27;20254;-55
2022/03/26 05:44:00;;;;;;;16.17;5.57;;;4.30;95.20;;;;;;5125401;27;20191;-50
2022/03/26 05:46:44;;;;;;;9.63;3.50;;;4.30;95.30;;;;;;5124225;27;20190;-50
2022/03/26 05:49:29;;;;;;;9.70;5.63;;;4.30;95.40;;;;;;5102565;28;20196;-52
2022/03/26 05:52:16;;;;;;;7.57;3.70;;;4.30;95.40;;;;;;5104726;28;20249;-51
2022/03/26 05:55:00;;;;;;;11.80;3.57;;;4.20;95.70;;;;;;5106682;27;20207;-50
2022/03/26 05:57:45;;;;;;;6.90;3.70;;;4.30;95.70;;;;;;5118658;27;20240;-53
2022/03/26 06:00:29;;;;;;;5.30;4.80;;;4.40;95.60;;;;;;5122346;27;20195;-54
2022/03/26 06:03:14;;;;;;;9.27;4.07;;;4.30;95.70;;;;;;5118344;28;20211;-55
2022/03/26 06:05:59;;;;;;;10.37;5.13;;;4.30;95.70;;;;;;5126300;27;20188;-58
2022/03/26 06:08:43;;;;;;;9.40;4.27;;;4.40;95.70;;;;;;5127788;27;20263;-54
2022/03/26 06:11:28;;;;;;;8.87;4.87;;;4.50;95.60;;;;;;5127935;27;20280;-57
2022/03/26 06:14:12;;;;;;;40.93;18.70;;;4.40;95.70;;;;;;5132469;27;20198;-54
2022/03/26 06:16:58;;;;;;;9.73;5.37;;;4.60;96.20;;;;;;5129802;27;20190;-58
2022/03/26 06:19:43;;;;;;;9.80;5.03;;;4.50;95.80;;;;;;5123757;27;20253;-58
2022/03/26 06:22:28;;;;;;;11.27;4.67;;;4.70;96.40;;;;;;5147691;27;20182;-57
2022/03/26 06:25:12;;;;;;;8.47;5.43;;;4.90;96.20;;;;;;5147142;27;20191;-55
2022/03/26 06:27:58;;;;;;;12.93;4.60;;;5.10;95.50;;;;;;5137408;27;20661;-49
2022/03/26 06:30:43;;;;;;;8.67;4.00;;;5.10;95.00;;;;;;5129817;27;20192;-52
2022/03/26 06:33:27;;;;;;;9.73;3.60;;;5.10;95.30;;;;;;5125936;27;20218;-54
2022/03/26 06:36:13;;;;;;;9.37;4.47;;;5.10;95.10;;;;;;5126821;27;20203;-52
2022/03/26 06:38:59;;;;;;;7.63;4.20;;;5.30;95.50;;;;;;5126899;27;20195;-52
2022/03/26 06:41:44;;;;;;;12.47;4.33;;;5.30;94.50;;;;;;5126140;27;20296;-53
2022/03/26 06:44:28;;;;;;;7.40;4.50;;;5.20;94.90;;;;;;5128630;27;20202;-50
2022/03/26 06:47:13;;;;;;;7.00;4.10;;;5.30;94.50;;;;;;5124953;27;20266;-60
2022/03/26 06:49:58;;;;;;;8.73;5.63;;;5.30;94.50;;;;;;5123856;27;20252;-55
2022/03/26 06:52:44;;;;;;;7.93;3.90;;;5.40;94.40;;;;;;5127843;27;20195;-56
2022/03/26 06:55:28;;;;;;;8.80;5.13;;;5.60;94.30;;;;;;5126374;27;20196;-52
2022/03/26 06:58:12;;;;;;;7.07;3.53;;;5.70;94.10;;;;;;5126856;27;20195;-51
2022/03/26 07:00:58;;;;;;;8.47;3.87;;;5.70;94.00;;;;;;5127772;27;20275;-48
2022/03/26 07:03:42;;;;;;;10.97;4.50;;;5.80;93.80;;;;;;5125455;27;20265;-52
2022/03/26 07:06:27;;;;;;;6.13;4.10;;;5.60;94.00;;;;;;5127494;27;20245;-54
2022/03/26 07:09:11;;;;;;;5.53;3.47;;;5.80;93.90;;;;;;5126661;27;20211;-49
2022/03/26 07:11:55;;;;;;;7.57;3.90;;;5.90;93.60;;;;;;5125641;27;20207;-50
2022/03/26 07:14:40;;;;;;;8.43;3.70;;;6.00;93.50;;;;;;5127567;27;20248;-54
2022/03/26 07:17:25;;;;;;;5.30;3.43;;;6.10;93.40;;;;;;5127108;27;20195;-59
2022/03/26 07:20:10;;;;;;;6.83;4.17;;;6.20;93.00;;;;;;5125984;27;20245;-58
2022/03/26 07:22:54;;;;;;;6.07;4.10;;;6.20;93.10;;;;;;5127543;27;20227;-50
2022/03/26 07:25:39;;;;;;;11.60;4.17;;;6.30;93.00;;;;;;5126031;27;20192;-53
2022/03/26 07:28:24;;;;;;;7.40;3.83;;;6.40;93.00;;;;;;5126574;27;20222;-48
2022/03/26 07:31:08;;;;;;;8.70;4.37;;;6.60;92.90;;;;;;5127010;27;20267;-51
2022/03/26 07:33:53;;;;;;;10.57;3.90;;;6.60;93.00;;;;;;5124735;27;20237;-54
2022/03/26 07:36:37;;;;;;;7.43;3.83;;;6.70;92.80;;;;;;5127664;27;20196;-48
2022/03/26 07:39:22;;;;;;;8.07;5.00;;;6.90;92.60;;;;;;5126591;27;20237;-56
2022/03/26 07:42:07;;;;;;;8.80;4.07;;;7.00;92.40;;;;;;5125661;27;20210;-50
2022/03/26 07:44:52;;;;;;;6.90;3.43;;;7.20;91.90;;;;;;5127142;27;20199;-50
2022/03/26 07:47:38;;;;;;;6.23;4.27;;;7.30;91.70;;;;;;5126573;27;20348;-54
2022/03/26 07:50:23;;;;;;;10.07;5.40;;;7.40;91.40;;;;;;5125478;27;20227;-54
2022/03/26 07:53:09;;;;;;;8.17;3.53;;;7.50;91.40;;;;;;5126566;27;20257;-58
2022/03/26 07:55:54;;;;;;;8.07;3.67;;;7.50;91.60;;;;;;5125637;27;20179;-52
2022/03/26 07:58:38;;;;;;;9.60;4.50;;;7.60;91.50;;;;;;5125988;27;20237;-53
2022/03/26 08:01:22;;;;;;;6.83;3.70;;;7.90;91.30;;;;;;5126246;27;20257;-50
2022/03/26 08:04:07;;;;;;;10.60;5.03;;;8.00;91.10;;;;;;5124431;27;20226;-50
2022/03/26 08:06:51;;;;;;;7.20;3.80;;;8.10;91.00;;;;;;5126114;27;20197;-54
2022/03/26 08:09:35;;;;;;;7.87;4.50;;;8.40;90.90;;;;;;5126324;27;20207;-54
2022/03/26 08:12:20;;;;;;;7.73;3.80;;;8.60;90.50;;;;;;5124938;27;20216;-48
2022/03/26 08:15:06;;;;;;;9.73;4.97;;;9.00;89.70;;;;;;5126922;27;20191;-51
2022/03/26 08:17:50;;;;;;;7.63;4.50;;;9.10;89.10;;;;;;5125998;27;20188;-60
2022/03/26 08:20:35;;;;;;;6.47;4.90;;;9.50;88.50;;;;;;5124971;27;20187;-57
2022/03/26 08:23:19;;;;;;;10.47;4.87;;;9.70;87.30;;;;;;5126283;27;20261;-51
2022/03/26 08:26:23;;;;;;;8.53;4.37;;;9.90;86.50;;;;;;5124926;27;20191;-53
2022/03/26 08:29:07;;;;;;;12.23;5.23;;;10.40;86.00;;;;;;5124422;27;20277;-58
2022/03/26 08:31:51;;;;;;;12.03;5.53;;;10.50;85.10;;;;;;5126427;27;20200;-56
2022/03/26 08:34:36;;;;;;;9.70;4.93;;;11.00;83.60;;;;;;5124326;27;20192;-60
2022/03/26 08:37:20;;;;;;;10.17;5.23;;;11.40;82.20;;;;;;5125774;27;20199;-57
2022/03/26 08:40:05;;;;;;;8.97;5.30;;;11.50;81.90;;;;;;5125896;27;20222;-58
2022/03/26 08:42:49;;;;;;;8.93;4.67;;;11.60;80.80;;;;;;5124284;27;20191;-56
2022/03/26 08:45:35;;;;;;;11.23;5.47;;;11.70;80.50;;;;;;5125740;27;20251;-50
2022/03/26 08:48:19;;;;;;;10.80;5.83;;;11.90;79.50;;;;;;5125399;27;20242;-51
2022/03/26 08:51:04;;;;;;;10.80;5.77;;;12.00;78.90;;;;;;5124070;27;20268;-54
2022/03/26 08:53:50;;;;;;;12.37;5.53;;;12.20;77.80;;;;;;5126525;27;20201;-53
2022/03/26 08:56:34;;;;;;;12.47;6.27;;;12.50;76.90;;;;;;5124903;27;20222;-53
2022/03/26 08:59:22;;;;;;;11.60;6.27;;;12.70;74.90;;;;;;5123971;27;20194;-54
2022/03/26 09:02:06;;;;;;;12.83;5.80;;;12.70;75.10;;;;;;5125439;27;20192;-53
2022/03/26 09:04:51;;;;;;;13.87;6.00;;;13.00;75.10;;;;;;5124044;27;20221;-55
2022/03/26 09:07:36;;;;;;;12.27;6.17;;;13.20;73.10;;;;;;5124553;27;20231;-56
2022/03/26 09:10:21;;;;;;;10.87;5.90;;;13.60;72.20;;;;;;5124970;27;20272;-59
2022/03/26 09:13:05;;;;;;;12.03;5.90;;;14.10;71.30;;;;;;5123303;27;20199;-61
2022/03/26 09:15:50;;;;;;;14.83;7.10;;;15.00;70.00;;;;;;5125064;27;20194;-59
2022/03/26 09:18:34;;;;;;;17.53;7.17;;;14.50;69.40;;;;;;5124935;27;20198;-56
2022/03/26 09:21:18;;;;;;;15.13;7.30;;;14.70;69.10;;;;;;5123622;27;20189;-51
2022/03/26 09:24:03;;;;;;;12.13;6.60;;;15.10;68.10;;;;;;5125521;27;20209;-48
2022/03/26 09:26:47;;;;;;;12.03;7.00;;;15.50;66.80;;;;;;5124145;27;20207;-51
2022/03/26 09:29:31;;;;;;;12.77;6.63;;;16.40;65.50;;;;;;5123747;27;20195;-52
2022/03/26 09:32:15;;;;;;;12.20;6.93;;;17.20;64.50;;;;;;5124435;27;20269;-51
2022/03/26 09:35:00;;;;;;;14.87;6.97;;;17.70;61.80;;;;;;5123499;27;20202;-51
2022/03/26 09:37:44;;;;;;;15.20;7.60;;;17.80;60.30;;;;;;5124608;27;20265;-54
2022/03/26 09:40:29;;;;;;;17.23;8.05;;;17.40;60.70;;;;;;5124615;27;20341;-49
2022/03/26 09:43:15;;;;;;;13.80;7.68;;;17.10;61.20;;;;;;5122884;27;20199;-58
2022/03/26 09:45:59;;;;;;;15.38;8.10;;;17.60;60.00;;;;;;5125293;27;20202;-58
2022/03/26 09:48:44;;;;;;;13.82;7.78;;;18.10;59.40;;;;;;5124437;27;20195;-50
2022/03/26 09:51:29;;;;;;;16.75;8.43;;;18.70;58.00;;;;;;5123034;27;20327;-50
2022/03/26 09:54:15;;;;;;;16.20;8.43;;;19.50;56.20;;;;;;5124858;27;20214;-58
2022/03/26 09:57:00;;;;;;;15.93;7.95;;;20.10;54.80;;;;;;5122788;27;20203;-60
2022/03/26 09:59:44;;;;;;;16.52;8.40;;;19.20;55.30;;;;;;5123091;27;20199;-57
2022/03/26 10:02:28;;;;;;;14.52;7.78;;;18.70;54.80;;;;;;5124885;28;20271;-59
2022/03/26 10:05:17;;;;;;;13.93;7.38;;;18.40;55.90;;;;;;5122817;28;20183;-60
2022/03/26 10:08:37;;;;;;;12.05;7.22;;;19.10;54.30;;;;;;5124149;28;20213;-50
2022/03/26 10:11:22;;;;;;;13.98;7.88;;;18.80;53.10;;;;;;5047967;28;20197;-56
2022/03/26 10:14:06;;;;;;;15.30;7.57;;;19.80;52.90;;;;;;5046604;28;20348;-54
2022/03/26 10:16:51;;;;;;;16.10;8.38;;;20.50;50.60;;;;;;5047113;28;20229;-56
2022/03/26 10:19:36;;;;;;;13.77;8.25;;;21.40;50.00;;;;;;5048047;28;20185;-60
2022/03/26 10:22:31;;;;;;;14.05;7.97;;;21.40;49.60;;;;;;5046464;28;20201;-53
2022/03/26 10:25:22;;;;;;;15.57;8.60;;;21.80;47.80;;;;;;5048095;28;20217;-53
2022/03/26 10:28:07;;;;;;;13.35;8.65;;;22.30;47.40;;;;;;5047323;28;20213;-57
2022/03/26 10:34:28;;;;;;;18.00;8.70;;;23.30;45.90;;;;;;5062041;28;20265;-55
2022/03/26 10:37:18;;;;;;;15.70;8.95;;;24.10;43.90;;;;;;4988669;28;20219;-50
2022/03/26 10:40:20;;;;;;;13.43;9.32;;;24.40;42.90;;;;;;4987582;28;20455;-52
2022/03/26 10:43:11;;;;;;;14.82;8.52;;;23.10;44.00;;;;;;5001610;28;20224;-48
2022/03/26 10:45:57;;;;;;;11.45;8.25;;;23.40;44.50;;;;;;5017870;28;20221;-52
2022/03/26 10:48:43;;;;;;;16.65;8.50;;;23.40;42.30;;;;;;5067039;28;20196;-53
2022/03/26 10:51:35;;;;;;;12.43;8.38;;;22.10;43.10;;;;;;5066816;28;20209;-49
2022/03/26 10:54:28;;;;;;;14.57;9.02;;;23.40;42.30;;;;;;5067659;28;20208;-52
2022/03/26 10:57:12;;;;;;;13.38;8.38;;;24.40;41.50;;;;;;5066332;28;20278;-47
2022/03/26 10:59:57;;;;;;;11.65;7.90;;;24.50;40.60;;;;;;5067528;28;20360;-53
2022/03/26 11:02:43;;;;;;;10.90;7.82;;;25.00;38.50;;;;;;5067736;28;20314;-50
2022/03/26 11:05:30;;;;;;;12.07;7.32;;;25.10;36.90;;;;;;5065890;28;20186;-50
2022/03/26 11:08:16;;;;;;;11.75;8.30;;;23.60;37.10;;;;;;5070442;28;20300;-56
2022/03/26 11:11:07;;;;;;;17.67;8.27;;;24.30;38.40;;;;;;5071036;28;20277;-55
2022/03/26 11:13:53;;;;;;;14.55;8.45;;;25.30;39.10;;;;;;5126166;27;20195;-57
2022/03/26 11:16:40;;;;;;;15.27;8.05;;;25.30;39.80;;;;;;5127854;27;20196;-57
2022/03/26 11:19:59;;;;;;;11.10;7.90;;;25.50;39.80;;;;;;5127570;27;20328;-48
2022/03/26 11:23:39;;;;;;;8.52;6.72;;;26.90;39.00;;;;;;5125997;27;20215;-58
2022/03/26 11:26:55;;;;;;;11.88;7.90;;;27.20;35.90;;;;;;5050256;28;20190;-56
2022/03/26 11:29:56;;;;;;;13.27;8.20;;;27.30;36.20;;;;;;5051040;28;20198;-58
2022/03/26 11:32:44;;;;;;;12.27;7.90;;;28.20;34.80;;;;;;5050205;28;20200;-52
2022/03/26 11:35:32;;;;;;;9.88;7.55;;;26.00;37.50;;;;;;5048139;28;20186;-53
2022/03/26 11:38:17;;;;;;;11.30;7.72;;;27.20;36.20;;;;;;5050898;28;20213;-58
2022/03/26 11:41:08;;;;;;;13.55;7.55;;;24.70;37.50;;;;;;5049881;28;20276;-59
2022/03/26 11:43:55;;;;;;;12.05;7.20;;;24.60;38.20;;;;;;5048476;28;20193;-49
2022/03/26 11:52:53;;;;;;;11.63;6.53;;;24.10;38.50;;;;;;5063400;28;20256;-60
2022/03/26 11:55:46;;;;;;;10.50;6.55;;;24.90;37.80;;;;;;5056680;27;20189;-55
2022/03/26 11:58:31;;;;;;;12.55;7.03;;;26.50;36.40;;;;;;5126492;27;20223;-60
2022/03/26 12:01:15;;;;;;;15.50;7.78;;;27.20;36.60;;;;;;5125107;27;20207;-58
2022/03/26 12:04:11;;;;;;;11.25;7.00;;;26.20;36.70;;;;;;5127169;27;20187;-52
2022/03/26 12:06:58;;;;;;;20.65;11.40;;;25.80;36.60;;;;;;5125377;27;20278;-50
2022/03/26 12:09:42;;;;;;;15.82;7.97;;;26.90;36.00;;;;;;5125630;27;20192;-49
2022/03/26 12:12:58;;;;;;;12.95;6.90;;;25.20;37.00;;;;;;5127187;27;20241;-51
2022/03/26 12:16:02;;;;;;;9.10;6.32;;;25.20;37.40;;;;;;5140474;27;20231;-60
2022/03/26 12:18:47;;;;;;;7.95;5.65;;;26.30;37.00;;;;;;5124757;27;20231;-53
2022/03/26 12:21:49;;;;;;;9.15;6.32;;;28.20;35.00;;;;;;5126505;27;20272;-48
2022/03/26 12:24:33;;;;;;;9.05;6.40;;;27.40;36.00;;;;;;5125698;27;20281;-56
2022/03/26 12:27:17;;;;;;;9.00;5.35;;;24.80;36.00;;;;;;5124676;27;20191;-54
2022/03/26 12:30:01;;;;;;;10.93;5.13;;;26.70;35.50;;;;;;5126238;27;20199;-48
2022/03/26 12:32:46;;;;;;;8.95;5.57;;;27.60;34.50;;;;;;5125337;27;20199;-53
2022/03/26 12:35:30;;;;;;;6.97;4.88;;;28.10;34.00;;;;;;5124801;27;20203;-53
2022/03/26 12:38:15;;;;;;;7.78;5.80;;;29.00;33.40;;;;;;5125839;27;20253;-61
2022/03/26 12:41:02;;;;;;;9.25;5.53;;;26.90;33.60;;;;;;5125098;27;20238;-58
2022/03/26 12:43:57;;;;;;;7.60;5.05;;;27.70;33.80;;;;;;5124696;27;20187;-54
2022/03/26 12:46:41;;;;;;;5.28;4.60;;;26.40;33.10;;;;;;5140503;27;20196;-56
2022/03/26 12:49:25;;;;;;;20.73;12.88;;;24.80;34.70;;;;;;5124816;27;20195;-58
2022/03/26 12:52:09;;;;;;;7.13;4.85;;;23.90;36.20;;;;;;5125420;27;20199;-58
2022/03/26 12:54:59;;;;;;;7.43;4.80;;;23.50;36.50;;;;;;5125561;27;20215;-55
2022/03/26 13:01:11;;;;;;;6.50;4.28;;;20.50;39.10;;;;;;5125817;27;20248;-52
2022/03/26 13:03:56;;;;;;;8.70;4.32;;;20.40;39.00;;;;;;5140646;27;20199;-59
2022/03/26 13:06:40;;;;;;;7.68;4.75;;;22.00;37.80;;;;;;5123948;27;20192;-57
2022/03/26 13:09:32;;;;;;;8.05;4.38;;;23.50;37.10;;;;;;5125489;27;20241;-56
2022/03/26 13:12:27;;;;;;;5.63;3.97;;;25.00;34.60;;;;;;5125693;27;20215;-60
2022/03/26 13:15:13;;;;;;;8.48;4.10;;;26.10;33.50;;;;;;5123887;27;20241;-58
2022/03/26 13:18:03;;;;;;;6.60;4.15;;;28.10;33.10;;;;;;5125050;27;20314;-56
2022/03/26 13:20:48;;;;;;;8.48;5.07;;;28.90;33.10;;;;;;5140307;27;20264;-53
2022/03/26 13:23:32;;;;;;;8.45;5.68;;;29.30;31.90;;;;;;5123287;27;20283;-50
2022/03/26 13:26:16;;;;;;;7.70;5.03;;;28.10;33.40;;;;;;5125380;27;20267;-48
2022/03/26 13:29:11;;;;;;;8.85;5.30;;;28.20;32.40;;;;;;5124460;27;20187;-57
2022/03/26 13:32:03;;;;;;;7.07;4.30;;;28.50;32.40;;;;;;5122810;27;20313;-55
2022/03/26 13:34:48;;;;;;;7.82;5.07;;;27.60;32.80;;;;;;5124962;27;20206;-51
2022/03/26 13:38:10;;;;;;;5.80;4.15;;;28.40;33.20;;;;;;5124255;27;20222;-53
2022/03/26 13:40:55;;;;;;;4.57;4.15;;;30.20;32.50;;;;;;5123391;27;20245;-59
2022/03/26 13:43:39;;;;;;;4.55;4.03;;;30.80;31.30;;;;;;5125055;27;20199;-59
2022/03/26 13:46:24;;;;;;;6.65;4.05;;;30.90;30.30;;;;;;5124590;27;20315;-57
2022/03/26 13:49:08;;;;;;;4.60;3.70;;;30.30;31.20;;;;;;5123328;27;20192;-47
2022/03/26 13:51:54;;;;;;;6.10;4.22;;;29.80;30.30;;;;;;5125033;27;20195;-52
2022/03/26 13:54:38;;;;;;;5.45;4.03;;;29.00;31.00;;;;;;5124088;27;20192;-55
2022/03/26 13:57:35;;;;;;;7.80;4.40;;;29.50;31.30;;;;;;5123144;27;20241;-52
2022/03/26 14:00:25;;;;;;;6.90;4.30;;;28.40;31.70;;;;;;5125233;27;20206;-53
2022/03/26 14:03:09;;;;;;;4.93;4.28;;;28.90;32.30;;;;;;5123629;27;20269;-54
2022/03/26 14:05:55;;;;;;;5.68;4.38;;;28.70;32.50;;;;;;5123413;27;20272;-51
2022/03/26 14:08:39;;;;;;;6.03;4.28;;;29.80;32.20;;;;;;5125452;28;20201;-56
2022/03/26 14:11:24;;;;;;;5.22;4.25;;;30.00;31.70;;;;;;5123419;28;20187;-50
2022/03/26 14:14:08;;;;;;;6.07;4.43;;;31.00;31.10;;;;;;5124280;28;20207;-58
2022/03/26 14:16:52;;;;;;;6.88;4.75;;;32.00;31.50;;;;;;5123867;28;20195;-54
2022/03/26 14:19:37;;;;;;;6.13;4.78;;;29.90;31.60;;;;;;5123560;28;20217;-46
2022/03/26 14:22:21;;;;;;;6.30;4.45;;;29.90;31.50;;;;;;5124717;28;20199;-54
2022/03/26 14:25:06;;;;;;;6.22;4.43;;;29.30;33.20;;;;;;5124598;28;20285;-51
2022/03/26 14:27:50;;;;;;;4.93;3.58;;;30.70;32.00;;;;;;5123391;28;20276;-49
2022/03/26 14:30:36;;;;;;;4.57;3.95;;;29.40;32.60;;;;;;5124740;28;20229;-53
2022/03/26 14:33:20;;;;;;;4.80;3.80;;;28.50;31.90;;;;;;5123400;28;20186;-58
2022/03/26 14:36:04;;;;;;;7.82;3.35;;;28.90;31.60;;;;;;5123290;28;20206;-56
2022/03/26 14:38:49;;;;;;;7.88;3.70;;;28.50;32.30;;;;;;5124080;28;20227;-55
2022/03/26 14:41:33;;;;;;;4.05;3.42;;;29.10;31.30;;;;;;5122507;27;20276;-58